createdAt,value
2022-10-12T00:05:39.672Z,21.74
2022-10-12T00:13:16.046Z,21.86
2022-10-12T00:20:48.929Z,21.81
2022-10-12T00:28:38.361Z,21.82
2022-10-12T00:36:10.925Z,21.82
2022-10-12T00:43:47.407Z,21.88
2022-10-12T00:51:43.515Z,21.9
2022-10-12T00:59:28.954Z,21.98
2022-10-12T01:07:16.901Z,21.86
2022-10-12T01:14:40.058Z,21.86
2022-10-12T01:22:45.677Z,21.82
2022-10-12T01:31:12.479Z,21.77
2022-10-12T01:39:32.951Z,21.83
2022-10-12T01:47:34.091Z,21.76
2022-10-12T01:55:39.299Z,21.71
2022-10-12T02:04:02.876Z,21.76
2022-10-12T02:12:26.761Z,21.74
2022-10-12T02:20:39.361Z,21.74
2022-10-12T02:28:31.919Z,21.71
2022-10-12T02:36:43.311Z,21.68
2022-10-12T02:44:53.618Z,21.69
2022-10-12T02:52:52.992Z,21.68
2022-10-12T03:00:37.034Z,21.66
2022-10-12T03:08:17.078Z,21.66
2022-10-12T03:15:44.224Z,21.66
2022-10-12T03:23:24.999Z,21.66
2022-10-12T03:30:55.588Z,21.66
2022-10-12T03:38:37.344Z,21.65
2022-10-12T03:46:24.570Z,21.63
2022-10-12T03:54:06.272Z,21.64
2022-10-12T04:01:51.423Z,21.62
2022-10-12T04:09:34.089Z,21.58
2022-10-12T04:17:07.689Z,21.57
2022-10-12T04:24:53.092Z,21.59
2022-10-12T04:32:33.070Z,21.56
2022-10-12T04:40:15.826Z,21.57
2022-10-12T04:47:55.637Z,21.52
2022-10-12T04:55:44.103Z,21.48
2022-10-12T05:03:23.609Z,21.49
2022-10-12T05:10:57.947Z,21.5
2022-10-12T05:18:34.443Z,21.53
2022-10-12T05:26:14.330Z,21.48
2022-10-12T05:33:57.319Z,21.45
2022-10-12T05:41:37.023Z,21.51
2022-10-12T05:49:17.409Z,21.46
2022-10-12T05:56:59.869Z,21.49
2022-10-12T06:04:29.055Z,21.51
2022-10-12T06:12:07.694Z,21.53
2022-10-12T06:19:54.131Z,21.52
2022-10-12T06:27:35.056Z,21.51
2022-10-12T06:35:17.567Z,21.53
2022-10-12T06:43:15.570Z,21.52
2022-10-12T06:51:06.068Z,21.57
2022-10-12T06:58:51.677Z,21.61
2022-10-12T07:07:01.161Z,21.61
2022-10-12T07:14:55.741Z,21.6
2022-10-12T07:22:33.520Z,21.57
2022-10-12T07:30:23.675Z,21.54
2022-10-12T07:38:13.518Z,21.57
2022-10-12T07:46:03.925Z,21.56
2022-10-12T07:53:55.733Z,21.55
2022-10-12T08:01:47.783Z,21.57
2022-10-12T08:09:37.115Z,21.57
2022-10-12T08:17:34.869Z,21.57
2022-10-12T08:25:11.475Z,21.55
2022-10-12T08:32:59.990Z,21.56
2022-10-12T08:41:09.131Z,21.58
2022-10-12T08:49:34.636Z,21.65
2022-10-12T08:58:02.148Z,21.62
2022-10-12T09:06:05.362Z,21.56
2022-10-12T09:14:43.153Z,21.65
2022-10-12T09:23:26.512Z,21.66
2022-10-12T09:32:13.055Z,21.65
2022-10-12T09:40:34.368Z,21.6
2022-10-12T09:48:47.817Z,21.63
2022-10-12T09:57:13.127Z,21.65
2022-10-12T10:05:11.389Z,21.63
2022-10-12T10:13:28.441Z,21.79
2022-10-12T10:22:20.411Z,21.85
2022-10-12T10:30:33.740Z,21.73
2022-10-12T10:39:02.761Z,21.72
2022-10-12T10:47:29.203Z,21.73
2022-10-12T10:55:55.827Z,21.77
2022-10-12T11:04:20.061Z,21.76
2022-10-12T11:12:49.952Z,21.74
2022-10-12T11:21:06.074Z,21.69
2022-10-12T11:29:16.845Z,21.72
2022-10-12T11:37:27.358Z,21.71
2022-10-12T11:46:01.462Z,21.71
2022-10-12T11:54:25.319Z,21.73
2022-10-12T12:02:48.854Z,21.79
2022-10-12T12:11:03.870Z,21.69
2022-10-12T12:19:00.484Z,21.84
2022-10-12T12:27:01.229Z,21.75
2022-10-12T12:35:02.911Z,21.79
2022-10-12T12:43:13.797Z,21.86
2022-10-12T12:51:08.817Z,21.83
2022-10-12T12:59:05.353Z,21.85
2022-10-12T13:07:14.657Z,21.83
2022-10-12T13:15:05.504Z,21.87
2022-10-12T13:23:06.648Z,21.96
2022-10-12T13:31:19.836Z,22.11
2022-10-12T13:39:07.913Z,22.07
2022-10-12T13:47:15.828Z,22.17
2022-10-12T13:55:16.425Z,22.13
2022-10-12T14:03:25.509Z,22.28
2022-10-12T14:11:33.302Z,22.24
2022-10-12T14:19:21.292Z,22.27
2022-10-12T14:27:31.930Z,22.43
2022-10-12T14:35:47.973Z,22.56
2022-10-12T14:43:52.467Z,22.7
2022-10-12T14:51:38.899Z,22.62
2022-10-12T14:59:28.985Z,22.45
2022-10-12T15:07:07.883Z,22.38
2022-10-12T15:14:56.012Z,22.24
2022-10-12T15:22:25.961Z,22.21
2022-10-12T15:30:07.925Z,22.21
2022-10-12T15:37:49.334Z,22.14
2022-10-12T15:45:37.443Z,22.1
2022-10-12T15:53:35.429Z,22.1
2022-10-12T16:01:08.083Z,22.08
2022-10-12T16:08:45.808Z,22.05
2022-10-12T16:16:30.868Z,22.03
2022-10-12T16:24:18.880Z,22.04
2022-10-12T16:31:59.008Z,22.02
2022-10-12T16:39:39.460Z,22.01
2022-10-12T16:47:01.737Z,21.99
2022-10-12T16:54:34.648Z,21.95
2022-10-12T17:02:10.882Z,22
2022-10-12T17:09:54.772Z,21.97
2022-10-12T17:17:22.740Z,21.92
2022-10-12T17:25:07.322Z,21.92
2022-10-12T17:32:34.946Z,21.85
2022-10-12T17:40:16.515Z,21.83
2022-10-12T17:47:42.897Z,21.87
2022-10-12T17:55:24.253Z,21.85
2022-10-12T18:02:54.768Z,21.8
2022-10-12T18:10:34.891Z,21.81
2022-10-12T18:18:20.074Z,21.91
2022-10-12T18:25:48.543Z,21.84
2022-10-12T18:33:40.009Z,21.84
2022-10-12T18:41:09.416Z,21.79
2022-10-12T18:48:49.533Z,21.79
2022-10-12T18:56:33.333Z,21.85
2022-10-12T19:04:24.103Z,21.78
2022-10-12T19:12:04.948Z,21.71
2022-10-12T19:19:49.552Z,21.71
2022-10-12T19:27:35.278Z,21.7
2022-10-12T19:35:28.475Z,21.67
2022-10-12T19:43:21.756Z,21.66
2022-10-12T19:51:08.375Z,21.63
2022-10-12T19:58:53.362Z,21.63
2022-10-12T20:06:48.049Z,21.67
2022-10-12T20:14:18.594Z,21.67
2022-10-12T20:21:52.026Z,21.65
2022-10-12T20:29:32.298Z,21.66
2022-10-12T20:37:18.865Z,21.62
2022-10-12T20:45:02.937Z,21.6
2022-10-12T20:52:47.334Z,21.62
2022-10-12T21:00:32.804Z,21.64
2022-10-12T21:08:09.516Z,21.63
2022-10-12T21:15:52.681Z,21.6
2022-10-12T21:23:53.571Z,21.6
2022-10-12T21:31:32.980Z,21.6
2022-10-12T21:39:19.379Z,21.65
2022-10-12T21:47:18.295Z,21.64
2022-10-12T21:54:53.526Z,21.63
2022-10-12T22:02:41.489Z,21.63
2022-10-12T22:10:28.267Z,21.63
2022-10-12T22:18:20.114Z,21.63
2022-10-12T22:26:11.312Z,21.6
2022-10-12T22:33:57.445Z,21.62
2022-10-12T22:41:45.545Z,21.58
2022-10-12T22:49:24.103Z,21.58
2022-10-12T22:57:06.919Z,21.58
2022-10-12T23:04:44.674Z,21.58
2022-10-12T23:12:33.810Z,21.59
2022-10-12T23:20:01.538Z,21.62
2022-10-12T23:27:49.763Z,21.65
2022-10-12T23:35:54.766Z,21.59
2022-10-12T23:43:28.128Z,21.6
2022-10-12T23:51:11.493Z,21.57
2022-10-12T23:58:49.611Z,21.52
